createdAt,value
2022-11-13T00:02:29.310Z,81.11
2022-11-13T00:04:54.262Z,81.06
2022-11-13T00:07:26.196Z,81.25
2022-11-13T00:09:50.980Z,80.78
2022-11-13T00:12:15.992Z,81.18
2022-11-13T00:14:43.042Z,81.64
2022-11-13T00:17:09.410Z,82.28
2022-11-13T00:19:34.493Z,81.42
2022-11-13T00:22:00.485Z,81.36
2022-11-13T00:24:24.630Z,81.20
2022-11-13T00:26:53.670Z,82.21
2022-11-13T00:29:18.058Z,81.87
2022-11-13T00:31:45.037Z,81.68
2022-11-13T00:34:33.185Z,81.43
2022-11-13T00:36:54.015Z,81.31
2022-11-13T00:39:19.200Z,80.82
2022-11-13T00:41:43.831Z,81.24
2022-11-13T00:44:08.913Z,81.42
2022-11-13T00:46:40.150Z,81.27
2022-11-13T00:49:07.637Z,81.23
2022-11-13T00:51:32.179Z,80.90
2022-11-13T00:53:57.494Z,81.00
2022-11-13T00:56:21.918Z,79.73
2022-11-13T00:58:47.211Z,80.48
2022-11-13T01:01:22.490Z,80.04
2022-11-13T01:03:47.276Z,79.79
2022-11-13T01:06:23.797Z,79.70
2022-11-13T01:08:54.566Z,79.77
2022-11-13T01:11:23.284Z,79.78
2022-11-13T01:13:51.270Z,80.79
2022-11-13T01:16:23.613Z,80.94
2022-11-13T01:18:50.613Z,80.19
2022-11-13T01:21:22.305Z,80.82
2022-11-13T01:23:48.148Z,80.60
2022-11-13T01:26:17.721Z,80.81
2022-11-13T01:28:44.004Z,81.17
2022-11-13T01:31:10.604Z,80.56
2022-11-13T01:33:37.365Z,80.68
2022-11-13T01:36:04.683Z,80.36
2022-11-13T01:38:36.260Z,80.54
2022-11-13T01:41:01.804Z,81.19
2022-11-13T01:43:32.199Z,81.11
2022-11-13T01:46:17.061Z,81.76
2022-11-13T01:48:53.680Z,81.62
2022-11-13T01:51:38.548Z,81.00
2022-11-13T01:54:12.592Z,81.12
2022-11-13T01:56:39.202Z,81.05
2022-11-13T01:59:16.568Z,81.18
2022-11-13T02:01:42.293Z,80.63
2022-11-13T02:04:13.818Z,80.94
2022-11-13T02:06:47.244Z,80.70
2022-11-13T02:09:18.926Z,80.50
2022-11-13T02:11:51.101Z,80.75
2022-11-13T02:14:18.855Z,80.77
2022-11-13T02:16:49.963Z,80.35
2022-11-13T02:19:34.052Z,80.46
2022-11-13T02:22:19.733Z,80.33
2022-11-13T02:24:54.586Z,80.33
2022-11-13T02:27:32.547Z,80.17
2022-11-13T02:29:57.940Z,80.79
2022-11-13T02:32:22.443Z,80.80
2022-11-13T02:34:47.165Z,80.59
2022-11-13T02:37:23.120Z,80.35
2022-11-13T02:39:53.662Z,80.24
2022-11-13T02:42:20.317Z,80.42
2022-11-13T02:44:47.937Z,81.98
2022-11-13T02:47:12.275Z,82.21
2022-11-13T02:49:36.748Z,83.24
2022-11-13T02:52:08.222Z,83.85
2022-11-13T02:54:37.228Z,84.63
2022-11-13T02:57:08.845Z,85.38
2022-11-13T02:59:33.121Z,85.31
2022-11-13T03:01:57.682Z,84.99
2022-11-13T03:04:23.034Z,85.51
2022-11-13T03:06:47.573Z,85.73
2022-11-13T03:09:11.966Z,85.58
2022-11-13T03:11:40.270Z,85.63
2022-11-13T03:14:15.313Z,85.60
2022-11-13T03:16:40.506Z,84.67
2022-11-13T03:19:08.188Z,85.61
2022-11-13T03:21:33.902Z,85.99
2022-11-13T03:24:21.206Z,86.17
2022-11-13T03:26:51.430Z,86.72
2022-11-13T03:29:23.864Z,86.25
2022-11-13T03:32:24.693Z,86.80
2022-11-13T03:34:50.096Z,87.35
2022-11-13T03:37:22.112Z,86.94
2022-11-13T03:39:56.504Z,86.04
2022-11-13T03:42:24.714Z,84.95
2022-11-13T03:44:58.094Z,84.99
2022-11-13T03:47:37.345Z,84.88
2022-11-13T03:50:01.769Z,84.93
2022-11-13T03:52:28.062Z,85.21
2022-11-13T03:54:53.109Z,85.08
2022-11-13T03:57:17.863Z,84.45
2022-11-13T04:05:51.021Z,83.38
2022-11-13T04:08:16.153Z,83.55
2022-11-13T04:10:40.460Z,83.56
2022-11-13T04:13:04.994Z,83.65
2022-11-13T04:15:30.377Z,82.76
2022-11-13T04:17:54.624Z,82.61
2022-11-13T04:20:20.869Z,82.57
2022-11-13T04:22:48.780Z,82.62
2022-11-13T04:25:13.217Z,82.69
2022-11-13T04:27:39.049Z,81.85
2022-11-13T04:30:04.718Z,82.87
2022-11-13T04:32:29.041Z,82.99
2022-11-13T04:34:53.650Z,83.45
2022-11-13T04:37:19.289Z,83.02
2022-11-13T04:39:45.980Z,82.70
2022-11-13T04:42:24.422Z,83.28
2022-11-13T04:44:49.527Z,82.12
2022-11-13T04:47:16.134Z,81.69
2022-11-13T04:49:40.619Z,81.56
2022-11-13T04:52:08.659Z,81.96
2022-11-13T04:54:32.848Z,82.37
2022-11-13T04:56:59.978Z,82.19
2022-11-13T04:59:25.575Z,82.58
2022-11-13T05:11:30.039Z,81.79
2022-11-13T05:17:32.137Z,82.24
2022-11-13T05:20:02.031Z,81.76
2022-11-13T05:22:27.096Z,82.46
2022-11-13T05:24:51.386Z,82.82
2022-11-13T05:27:17.765Z,82.74
2022-11-13T05:29:42.156Z,82.92
2022-11-13T05:32:09.229Z,83.21
2022-11-13T05:34:37.101Z,84.35
2022-11-13T05:37:01.162Z,85.92
2022-11-13T05:39:25.714Z,86.00
2022-11-13T05:41:51.089Z,85.95
2022-11-13T05:44:15.587Z,86.03
2022-11-13T05:46:39.969Z,85.59
2022-11-13T05:49:06.346Z,84.81
2022-11-13T05:51:36.970Z,84.50
2022-11-13T05:54:02.861Z,84.70
2022-11-13T05:56:31.241Z,85.08
2022-11-13T05:58:57.694Z,84.30
2022-11-13T06:01:26.290Z,84.25
2022-11-13T06:06:39.278Z,85.57
2022-11-13T06:09:08.652Z,85.34
2022-11-13T06:11:34.413Z,84.64
2022-11-13T06:14:02.769Z,84.36
2022-11-13T06:16:33.515Z,84.68
2022-11-13T06:19:00.846Z,83.61
2022-11-13T06:21:30.754Z,84.51
2022-11-13T06:23:59.889Z,84.33
2022-11-13T06:26:27.334Z,84.17
2022-11-13T06:28:51.965Z,84.37
2022-11-13T06:31:23.137Z,84.77
2022-11-13T06:33:48.398Z,85.44
2022-11-13T06:36:16.910Z,86.04
2022-11-13T06:38:44.689Z,85.31
2022-11-13T06:41:14.663Z,84.62
2022-11-13T06:43:39.108Z,85.05
2022-11-13T06:46:08.432Z,84.86
2022-11-13T06:48:32.987Z,84.85
2022-11-13T06:50:57.622Z,85.21
2022-11-13T06:53:22.880Z,85.74
2022-11-13T06:55:49.227Z,85.27
2022-11-13T06:58:16.834Z,85.19
2022-11-13T07:00:43.545Z,84.68
2022-11-13T07:03:08.048Z,84.96
2022-11-13T07:05:32.260Z,84.03
2022-11-13T07:07:59.935Z,83.73
2022-11-13T07:10:24.505Z,84.77
2022-11-13T07:12:53.560Z,85.40
2022-11-13T07:15:22.392Z,85.37
2022-11-13T07:17:46.562Z,85.00
2022-11-13T07:20:12.899Z,85.53
2022-11-13T07:22:38.314Z,84.89
2022-11-13T07:25:02.746Z,83.90
2022-11-13T07:27:26.971Z,83.42
2022-11-13T07:29:52.276Z,82.54
2022-11-13T07:32:19.341Z,82.58
2022-11-13T07:34:45.898Z,82.76
2022-11-13T07:37:11.444Z,83.11
2022-11-13T07:39:36.201Z,82.04
2022-11-13T07:42:00.451Z,82.23
2022-11-13T07:44:52.998Z,81.97
2022-11-13T07:47:09.851Z,81.87
2022-11-13T07:49:37.410Z,81.52
2022-11-13T07:52:01.943Z,81.06
2022-11-13T07:54:26.582Z,81.81
2022-11-13T07:56:51.548Z,82.75
2022-11-13T07:59:16.332Z,83.44
2022-11-13T08:01:41.053Z,83.63
2022-11-13T08:04:06.263Z,84.19
2022-11-13T08:06:33.095Z,84.96
2022-11-13T08:08:57.783Z,85.19
2022-11-13T08:11:23.079Z,84.72
2022-11-13T08:13:47.250Z,86.07
2022-11-13T08:16:11.947Z,86.84
2022-11-13T08:18:37.651Z,86.13
2022-11-13T08:21:09.186Z,85.59
2022-11-13T08:23:38.930Z,86.38
2022-11-13T08:26:08.476Z,85.97
2022-11-13T08:28:33.083Z,86.08
2022-11-13T08:30:57.702Z,86.81
2022-11-13T08:33:23.078Z,86.74
2022-11-13T08:35:56.818Z,85.90
2022-11-13T08:38:21.117Z,84.14
2022-11-13T08:40:48.990Z,83.61
2022-11-13T08:43:13.355Z,83.76
2022-11-13T08:45:37.611Z,84.10
2022-11-13T08:48:04.155Z,84.56
2022-11-13T08:50:28.725Z,84.86
2022-11-13T08:52:57.670Z,83.75
2022-11-13T08:55:22.721Z,84.05
2022-11-13T08:57:50.674Z,83.70
2022-11-13T09:00:16.558Z,84.77
2022-11-13T09:02:45.465Z,84.50
2022-11-13T09:05:11.391Z,85.18
2022-11-13T09:07:35.860Z,84.57
2022-11-13T09:10:01.029Z,83.80
2022-11-13T09:12:28.451Z,84.55
2022-11-13T09:14:55.662Z,85.66
2022-11-13T09:17:21.570Z,85.21
2022-11-13T09:19:45.753Z,84.14
2022-11-13T09:22:10.228Z,83.54
2022-11-13T09:24:35.532Z,82.06
2022-11-13T09:27:00.027Z,83.22
2022-11-13T09:29:26.199Z,82.76
2022-11-13T09:32:06.281Z,82.87
2022-11-13T09:34:37.526Z,82.65
2022-11-13T09:37:10.050Z,82.88
2022-11-13T09:39:35.182Z,83.01
2022-11-13T09:42:17.031Z,82.78
2022-11-13T09:44:51.906Z,83.56
2022-11-13T09:47:27.134Z,82.73
2022-11-13T09:50:03.622Z,83.47
2022-11-13T09:52:48.909Z,82.64
2022-11-13T09:55:29.389Z,84.38
2022-11-13T09:58:08.993Z,83.46
2022-11-13T10:00:39.560Z,82.68
2022-11-13T10:06:36.800Z,81.58
2022-11-13T10:09:20.203Z,81.12
2022-11-13T10:11:57.493Z,81.40
2022-11-13T10:14:32.820Z,80.96
2022-11-13T10:17:07.153Z,80.16
2022-11-13T10:19:45.582Z,80.05
2022-11-13T10:22:33.845Z,80.50
2022-11-13T10:25:17.443Z,80.65
2022-11-13T10:27:44.295Z,79.41
2022-11-13T10:30:22.889Z,80.14
2022-11-13T10:32:50.237Z,79.48
2022-11-13T10:35:49.719Z,78.54
2022-11-13T10:38:35.255Z,79.79
2022-11-13T10:41:20.025Z,80.01
2022-11-13T10:44:05.350Z,81.17
2022-11-13T10:46:34.782Z,79.48
2022-11-13T10:49:19.682Z,79.80
2022-11-13T10:51:47.051Z,79.08
2022-11-13T10:54:28.355Z,78.62
2022-11-13T10:57:02.256Z,79.01
2022-11-13T10:59:28.376Z,78.36
2022-11-13T11:01:52.999Z,77.60
2022-11-13T11:04:27.692Z,77.53
2022-11-13T11:07:19.509Z,76.74
2022-11-13T11:09:46.943Z,76.40
2022-11-13T11:12:19.294Z,76.14
2022-11-13T11:15:07.643Z,75.58
2022-11-13T11:17:46.804Z,75.26
2022-11-13T11:20:27.025Z,74.35
2022-11-13T11:23:07.843Z,74.74
2022-11-13T11:25:43.775Z,76.44
2022-11-13T11:28:25.760Z,77.44
2022-11-13T11:31:01.159Z,78.17
2022-11-13T11:33:38.549Z,77.00
2022-11-13T11:36:20.460Z,78.47
2022-11-13T11:39:02.496Z,79.38
2022-11-13T11:41:39.231Z,79.14
2022-11-13T11:44:19.889Z,78.38
2022-11-13T11:46:46.912Z,77.04
2022-11-13T11:49:16.256Z,77.36
2022-11-13T11:52:01.458Z,76.66
2022-11-13T11:54:44.426Z,76.87
2022-11-13T11:57:39.741Z,75.81
2022-11-13T12:00:16.328Z,75.95
2022-11-13T12:03:45.676Z,76.05
2022-11-13T12:06:27.258Z,77.36
2022-11-13T12:09:06.071Z,77.43
2022-11-13T12:11:38.352Z,76.53
2022-11-13T12:14:23.481Z,75.76
2022-11-13T12:17:28.019Z,76.08
2022-11-13T12:20:21.801Z,75.73
2022-11-13T12:23:05.433Z,75.63
2022-11-13T12:25:44.660Z,75.48
2022-11-13T12:28:26.413Z,75.26
2022-11-13T12:31:08.372Z,75.20
2022-11-13T12:33:51.854Z,75.16
2022-11-13T12:36:20.853Z,76.06
2022-11-13T12:38:59.979Z,77.42
2022-11-13T12:41:36.165Z,77.57
2022-11-13T12:44:26.117Z,77.62
2022-11-13T12:46:51.764Z,77.65
2022-11-13T12:49:34.956Z,78.07
2022-11-13T12:52:02.645Z,77.36
2022-11-13T12:54:34.009Z,77.36
2022-11-13T12:57:28.610Z,77.24
2022-11-13T13:00:01.128Z,75.57
2022-11-13T13:02:42.982Z,75.73
2022-11-13T13:05:28.420Z,75.83
2022-11-13T13:08:39.539Z,76.27
2022-11-13T13:11:20.700Z,75.61
2022-11-13T13:14:01.301Z,75.30
2022-11-13T13:16:32.923Z,75.91
2022-11-13T13:19:09.704Z,76.54
2022-11-13T13:21:45.668Z,75.29
2022-11-13T13:24:29.580Z,76.03
2022-11-13T13:26:54.598Z,76.31
2022-11-13T13:29:26.843Z,76.54
2022-11-13T13:32:11.608Z,76.35
2022-11-13T13:34:56.948Z,76.27
2022-11-13T13:37:40.147Z,76.42
2022-11-13T13:40:28.452Z,76.94
2022-11-13T13:43:18.951Z,78.07
2022-11-13T13:46:04.102Z,79.08
2022-11-13T13:48:34.624Z,78.81
2022-11-13T13:51:03.691Z,78.34
2022-11-13T13:53:34.247Z,78.37
2022-11-13T13:56:01.939Z,78.77
2022-11-13T13:58:40.839Z,79.01
2022-11-13T14:01:24.548Z,79.66
2022-11-13T14:03:51.277Z,79.00
2022-11-13T14:06:25.131Z,79.27
2022-11-13T14:08:50.390Z,79.20
2022-11-13T14:11:27.206Z,79.48
2022-11-13T14:13:52.536Z,80.25
2022-11-13T14:16:17.120Z,80.98
2022-11-13T14:18:41.632Z,81.20
2022-11-13T14:21:21.318Z,81.25
2022-11-13T14:23:52.300Z,80.82
2022-11-13T14:26:18.704Z,81.04
2022-11-13T14:28:59.418Z,81.43
2022-11-13T14:31:33.442Z,81.49
2022-11-13T14:33:58.808Z,82.16
2022-11-13T14:36:36.134Z,82.51
2022-11-13T14:39:03.093Z,82.38
2022-11-13T14:41:40.134Z,82.15
2022-11-13T14:44:06.244Z,82.41
2022-11-13T14:46:36.718Z,81.95
2022-11-13T14:49:01.239Z,82.15
2022-11-13T14:51:32.292Z,82.84
2022-11-13T14:54:07.790Z,83.18
2022-11-13T14:56:38.807Z,83.78
2022-11-13T14:59:18.344Z,83.76
2022-11-13T15:01:56.308Z,83.20
2022-11-13T15:04:22.539Z,83.15
2022-11-13T15:06:51.084Z,83.47
2022-11-13T15:09:20.358Z,84.23
2022-11-13T15:11:44.507Z,85.27
2022-11-13T15:14:15.580Z,86.22
2022-11-13T15:16:39.943Z,85.87
2022-11-13T15:19:12.304Z,85.46
2022-11-13T15:21:37.745Z,85.94
2022-11-13T15:24:04.814Z,85.63
2022-11-13T15:26:29.622Z,85.18
2022-11-13T15:28:54.899Z,85.07
2022-11-13T15:31:24.799Z,85.01
2022-11-13T15:33:49.549Z,84.86
2022-11-13T15:36:14.556Z,85.38
2022-11-13T15:38:39.080Z,86.10
2022-11-13T15:41:16.649Z,85.88
2022-11-13T15:43:46.192Z,86.59
2022-11-13T15:46:18.277Z,86.37
2022-11-13T15:48:44.388Z,85.62
2022-11-13T15:51:09.432Z,85.22
2022-11-13T15:53:33.891Z,84.48
2022-11-13T15:56:05.307Z,84.10
2022-11-13T15:58:34.528Z,84.45
2022-11-13T16:00:59.937Z,84.78
2022-11-13T16:03:24.186Z,84.94
2022-11-13T16:05:48.889Z,85.20
2022-11-13T16:08:18.437Z,85.68
2022-11-13T16:10:42.773Z,85.57
2022-11-13T16:13:07.230Z,85.59
2022-11-13T16:15:35.907Z,85.90
2022-11-13T16:18:02.458Z,85.70
2022-11-13T16:20:29.225Z,85.49
2022-11-13T16:22:55.220Z,85.89
2022-11-13T16:25:23.794Z,85.98
2022-11-13T16:27:50.240Z,86.25
2022-11-13T16:30:23.180Z,86.62
2022-11-13T16:32:51.410Z,86.40
2022-11-13T16:35:18.399Z,85.98
2022-11-13T16:37:43.373Z,86.49
2022-11-13T16:40:20.059Z,86.55
2022-11-13T16:42:45.267Z,85.96
2022-11-13T16:45:11.185Z,86.03
2022-11-13T16:47:35.633Z,86.52
2022-11-13T16:50:04.307Z,86.37
2022-11-13T16:52:29.883Z,86.63
2022-11-13T16:54:54.641Z,86.62
2022-11-13T16:57:20.133Z,86.52
2022-11-13T16:59:44.915Z,87.09
2022-11-13T17:02:18.150Z,87.37
2022-11-13T17:04:44.070Z,86.99
2022-11-13T17:07:15.701Z,86.62
2022-11-13T17:09:43.318Z,86.74
2022-11-13T17:12:09.174Z,86.85
2022-11-13T17:14:35.185Z,87.23
2022-11-13T17:16:59.387Z,86.65
2022-11-13T17:19:24.854Z,86.21
2022-11-13T17:21:48.998Z,86.26
2022-11-13T17:24:16.286Z,86.74
2022-11-13T17:26:41.792Z,86.91
2022-11-13T17:29:07.053Z,86.68
2022-11-13T17:31:31.827Z,87.01
2022-11-13T17:33:57.554Z,86.73
2022-11-13T17:36:25.755Z,87.01
2022-11-13T17:38:50.204Z,86.79
2022-11-13T17:41:19.867Z,86.59
2022-11-13T17:43:45.650Z,86.44
2022-11-13T17:46:16.204Z,86.62
2022-11-13T17:48:42.104Z,86.18
2022-11-13T17:51:11.078Z,85.96
2022-11-13T17:53:36.001Z,85.76
2022-11-13T17:56:03.566Z,86.09
2022-11-13T17:58:32.544Z,86.25
2022-11-13T18:01:09.450Z,86.51
2022-11-13T18:03:34.758Z,86.22
2022-11-13T18:06:01.183Z,85.79
2022-11-13T18:08:25.602Z,85.83
2022-11-13T18:10:52.903Z,86.41
2022-11-13T18:13:31.052Z,85.89
2022-11-13T18:15:56.970Z,85.38
2022-11-13T18:18:21.676Z,85.51
2022-11-13T18:20:46.254Z,85.52
2022-11-13T18:23:11.875Z,84.68
2022-11-13T18:25:39.909Z,84.35
2022-11-13T18:28:15.143Z,84.52
2022-11-13T18:30:44.935Z,84.79
2022-11-13T18:33:13.604Z,84.72
2022-11-13T18:35:37.978Z,84.58
2022-11-13T18:38:09.194Z,84.70
2022-11-13T18:40:33.534Z,84.75
2022-11-13T18:43:12.658Z,84.33
2022-11-13T18:45:38.056Z,84.40
2022-11-13T18:48:07.819Z,84.83
2022-11-13T18:50:32.414Z,85.32
2022-11-13T18:52:59.372Z,85.20
2022-11-13T18:55:30.684Z,84.74
2022-11-13T18:57:56.328Z,83.95
2022-11-13T19:00:22.686Z,83.44
2022-11-13T19:02:53.236Z,84.23
2022-11-13T19:05:20.240Z,84.90
2022-11-13T19:07:45.431Z,84.64
2022-11-13T19:10:23.423Z,84.27
2022-11-13T19:12:48.795Z,84.87
2022-11-13T19:15:13.917Z,86.35
2022-11-13T19:17:52.621Z,86.76
2022-11-13T19:20:24.084Z,86.85
2022-11-13T19:22:49.531Z,86.80
2022-11-13T19:25:26.096Z,85.95
2022-11-13T19:27:54.295Z,86.01
2022-11-13T19:30:19.461Z,85.82
2022-11-13T19:32:43.881Z,85.47
2022-11-13T19:35:10.293Z,86.29
2022-11-13T19:37:45.322Z,86.58
2022-11-13T19:40:29.493Z,86.82
2022-11-13T19:42:58.046Z,86.87
2022-11-13T19:45:22.994Z,86.78
2022-11-13T19:47:52.303Z,86.65
2022-11-13T19:50:22.702Z,86.47
2022-11-13T19:52:52.897Z,85.79
2022-11-13T19:55:17.381Z,85.79
2022-11-13T19:57:46.086Z,85.40
2022-11-13T20:00:23.005Z,85.38
2022-11-13T20:02:51.434Z,85.33
2022-11-13T20:05:17.937Z,85.28
2022-11-13T20:07:43.272Z,84.98
2022-11-13T20:10:11.844Z,84.45
2022-11-13T20:12:36.450Z,85.05
2022-11-13T20:15:01.618Z,85.13
2022-11-13T20:17:26.592Z,84.82
2022-11-13T20:19:51.548Z,85.66
2022-11-13T20:22:17.051Z,86.49
2022-11-13T20:24:41.616Z,86.19
2022-11-13T20:27:08.959Z,86.17
2022-11-13T20:29:34.671Z,85.66
2022-11-13T20:31:58.884Z,85.02
2022-11-13T20:34:23.268Z,84.64
2022-11-13T20:36:48.769Z,84.49
2022-11-13T20:39:13.424Z,84.69
2022-11-13T20:41:37.963Z,84.78
2022-11-13T20:44:05.767Z,84.99
2022-11-13T20:46:31.230Z,84.52
2022-11-13T20:48:55.827Z,85.04
2022-11-13T20:51:24.659Z,86.41
2022-11-13T20:53:51.115Z,87.30
2022-11-13T20:56:20.253Z,86.46
2022-11-13T20:58:46.003Z,86.05
2022-11-13T21:01:16.954Z,85.86
2022-11-13T21:03:43.581Z,85.72
2022-11-13T21:06:10.328Z,85.40
2022-11-13T21:08:34.904Z,85.29
2022-11-13T21:11:01.676Z,84.98
2022-11-13T21:13:27.562Z,84.86
2022-11-13T21:15:51.920Z,84.24
2022-11-13T21:18:20.808Z,83.72
2022-11-13T21:20:46.139Z,83.46
2022-11-13T21:23:10.632Z,83.52
2022-11-13T21:25:35.156Z,83.92
2022-11-13T21:28:00.660Z,84.10
2022-11-13T21:30:25.544Z,83.88
2022-11-13T21:32:50.376Z,84.03
2022-11-13T21:35:22.703Z,84.21
2022-11-13T21:37:47.164Z,84.00
2022-11-13T21:40:14.019Z,85.09
2022-11-13T21:42:39.269Z,85.08
2022-11-13T21:45:03.785Z,85.49
2022-11-13T21:47:28.716Z,85.88
2022-11-13T21:49:53.730Z,85.57
2022-11-13T21:52:21.012Z,85.46
2022-11-13T21:54:45.210Z,84.99
2022-11-13T21:57:10.311Z,85.22
2022-11-13T21:59:34.836Z,85.88
2022-11-13T22:01:59.311Z,85.67
2022-11-13T22:04:24.623Z,85.46
2022-11-13T22:06:53.538Z,85.22
2022-11-13T22:09:23.302Z,85.56
2022-11-13T22:11:49.972Z,85.02
2022-11-13T22:14:14.427Z,86.52
2022-11-13T22:16:43.634Z,86.85
2022-11-13T22:19:13.407Z,87.23
2022-11-13T22:21:39.055Z,87.30
2022-11-13T22:24:04.510Z,87.98
2022-11-13T22:26:33.366Z,87.98
2022-11-13T22:28:59.804Z,88.63
2022-11-13T22:31:29.610Z,88.36
2022-11-13T22:33:56.413Z,88.12
2022-11-13T22:36:26.020Z,87.35
2022-11-13T22:38:51.314Z,86.90
2022-11-13T22:41:22.887Z,86.41
2022-11-13T22:43:59.872Z,86.17
2022-11-13T22:46:34.829Z,84.96
2022-11-13T22:49:02.684Z,84.77
2022-11-13T22:51:31.866Z,84.24
2022-11-13T22:53:59.269Z,83.63
2022-11-13T22:56:26.183Z,83.68
2022-11-13T22:58:56.271Z,83.82
2022-11-13T23:01:23.530Z,84.34
2022-11-13T23:03:51.097Z,84.16
2022-11-13T23:06:20.711Z,84.00
2022-11-13T23:08:46.924Z,83.84
2022-11-13T23:11:17.296Z,83.99
2022-11-13T23:13:44.846Z,84.53
2022-11-13T23:16:12.706Z,84.94
2022-11-13T23:18:37.218Z,85.98
2022-11-13T23:21:02.824Z,86.28
2022-11-13T23:23:27.198Z,86.35
2022-11-13T23:25:51.894Z,86.06
2022-11-13T23:28:17.251Z,85.78
2022-11-13T23:30:41.932Z,85.56
2022-11-13T23:33:11.529Z,85.32
2022-11-13T23:35:36.626Z,85.17
2022-11-13T23:38:00.990Z,86.05
2022-11-13T23:40:26.231Z,86.37
2022-11-13T23:42:55.697Z,87.12
2022-11-13T23:45:20.646Z,87.91
2022-11-13T23:47:44.901Z,88.23
2022-11-13T23:50:14.508Z,88.19
2022-11-13T23:52:39.502Z,87.98
2022-11-13T23:55:03.963Z,87.11
2022-11-13T23:57:29.058Z,86.79
2022-11-13T23:59:53.167Z,86.57
